Time;durP1;ratioP1;P1;durP2;ratioP2;P2;SDS_P1;SDS_P2;PMS_P1;PMS_P2;Temp;Humidity;BMP_temperature;BMP_pressure;BME280_temperature;BME280_humidity;BME280_pressure;Samples;Min_cycle;Max_cycle;Signal;HPM_P1;HPM_P2
2022/05/07 00:00:50;;;;;;;15.30;11.00;;;;;;;13.42;54.23;100952.84;103768;1296;25327;-71
2022/05/07 00:03:17;;;;;;;17.30;11.10;;;;;;;13.43;54.34;100953.71;103822;1296;25480;-72
2022/05/07 00:05:44;;;;;;;15.40;10.70;;;;;;;13.36;54.33;100950.61;104256;1290;22575;-71
2022/05/07 00:08:11;;;;;;;14.80;11.10;;;;;;;13.20;54.48;100950.43;104596;1290;25353;-72
2022/05/07 00:10:39;;;;;;;14.50;11.20;;;;;;;13.07;54.76;100957.82;104656;1290;23530;-73
2022/05/07 00:13:06;;;;;;;17.00;11.40;;;;;;;13.04;55.11;100956.45;104062;1293;24583;-73
2022/05/07 00:15:33;;;;;;;16.50;11.70;;;;;;;13.03;54.92;100953.63;104043;1293;22760;-73
2022/05/07 00:18:06;;;;;;;15.50;11.90;;;;;;;13.00;55.00;100954.00;103946;1293;23776;-71
2022/05/07 00:20:34;;;;;;;14.60;10.90;;;;;;;12.99;55.14;100954.54;104069;1293;24312;-72
2022/05/07 00:23:02;;;;;;;19.20;11.70;;;;;;;13.01;55.38;100954.70;103931;1294;22785;-74
2022/05/07 00:25:30;;;;;;;13.60;11.40;;;;;;;12.97;55.54;100953.67;103903;1294;25634;-74
2022/05/07 00:27:57;;;;;;;18.60;12.00;;;;;;;12.93;55.49;100955.31;104070;1293;26753;-73
2022/05/07 00:30:24;;;;;;;17.70;10.40;;;;;;;12.92;55.50;100959.92;104083;1294;25266;-74
2022/05/07 00:32:51;;;;;;;15.90;12.60;;;;;;;12.85;55.46;100963.35;104599;1290;25303;-73
2022/05/07 00:35:18;;;;;;;19.60;12.00;;;;;;;12.76;55.77;100960.77;104553;1290;23725;-75
2022/05/07 00:37:46;;;;;;;14.90;11.30;;;;;;;12.67;55.69;100958.92;104280;1291;22587;-78
2022/05/07 00:40:13;;;;;;;12.60;10.90;;;;;;;12.57;55.90;100962.16;104471;1291;22551;-79
2022/05/07 00:42:41;;;;;;;12.10;10.80;;;;;;;12.51;56.06;100955.86;104469;1290;22575;-76
2022/05/07 00:45:08;;;;;;;15.10;11.20;;;;;;;12.38;56.08;100956.31;104690;1290;22587;-77
2022/05/07 00:47:35;;;;;;;15.40;11.10;;;;;;;12.28;56.35;100953.02;104476;1290;23884;-76
2022/05/07 00:52:49;;;;;;;14.70;11.10;;;;;;;12.22;56.93;100956.60;104488;1290;25306;-72
2022/05/07 00:55:16;;;;;;;18.50;11.70;;;;;;;12.26;56.98;100952.87;104939;1290;24404;-76
2022/05/07 00:57:44;;;;;;;14.00;11.00;;;;;;;12.30;56.92;100951.07;104924;1290;25376;-73
2022/05/07 01:00:12;;;;;;;14.40;10.80;;;;;;;12.34;57.05;100949.98;104622;1290;25405;-77
2022/05/07 01:02:41;;;;;;;17.70;11.50;;;;;;;12.34;56.79;100949.80;104691;1290;25311;-75
2022/05/07 01:05:10;;;;;;;20.40;11.30;;;;;;;12.24;56.96;100946.00;104533;1290;22540;-73
2022/05/07 01:07:37;;;;;;;16.60;12.00;;;;;;;12.21;57.08;100947.96;104688;1290;25464;-77
2022/05/07 01:10:06;;;;;;;16.10;11.80;;;;;;;12.20;57.31;100949.55;104525;1290;24701;-76
2022/05/07 01:12:37;;;;;;;14.60;11.10;;;;;;;12.22;57.42;100942.65;104418;1290;22560;-77
2022/05/07 01:15:07;;;;;;;15.70;11.50;;;;;;;12.17;57.16;100943.21;104334;1290;22580;-79
2022/05/07 01:17:35;;;;;;;15.60;12.90;;;;;;;12.07;57.28;100944.67;104288;1290;25258;-77
2022/05/07 01:20:09;;;;;;;17.50;11.90;;;;;;;11.99;57.37;100940.48;104037;1290;22551;-75
2022/05/07 01:22:37;;;;;;;14.70;11.80;;;;;;;11.90;57.46;100939.46;104585;1290;22575;-77
2022/05/07 01:25:05;;;;;;;19.40;12.80;;;;;;;11.86;57.61;100935.61;104574;1290;22518;-73
2022/05/07 01:27:33;;;;;;;16.80;13.00;;;;;;;11.88;57.83;100934.88;104545;1290;25432;-71
2022/05/07 01:30:00;;;;;;;16.30;11.90;;;;;;;11.88;57.84;100934.54;104965;1290;22698;-74
2022/05/07 01:32:29;;;;;;;23.70;11.70;;;;;;;11.87;57.94;100933.83;105035;1291;24384;-74
2022/05/07 01:34:56;;;;;;;19.20;12.10;;;;;;;11.92;58.04;100933.98;105580;1290;22593;-74
2022/05/07 01:37:25;;;;;;;15.90;12.40;;;;;;;11.93;57.92;100933.29;104654;1291;22686;-76
2022/05/07 01:39:53;;;;;;;19.10;12.60;;;;;;;11.91;57.98;100931.16;104391;1290;22573;-77
2022/05/07 01:42:20;;;;;;;17.80;12.50;;;;;;;11.92;58.02;100929.40;104135;1290;22553;-78
2022/05/07 01:44:47;;;;;;;18.00;12.30;;;;;;;11.89;57.91;100927.48;104440;1290;22887;-78
2022/05/07 01:50:00;;;;;;;18.40;13.20;;;;;;;11.95;58.28;100925.68;104604;1290;24024;-78
2022/05/07 01:52:29;;;;;;;14.40;10.70;;;;;;;11.98;58.24;100925.48;104479;1290;22633;-76
2022/05/07 01:54:56;;;;;;;18.50;13.10;;;;;;;11.95;58.10;100921.09;104794;1290;24145;-78
2022/05/07 01:57:24;;;;;;;20.20;13.80;;;;;;;11.96;58.20;100922.84;104537;1290;22603;-77
2022/05/07 01:59:51;;;;;;;20.20;13.90;;;;;;;11.97;58.15;100920.01;104140;1290;24289;-76
2022/05/07 02:02:18;;;;;;;21.20;13.90;;;;;;;12.03;58.28;100920.33;104139;1291;22566;-74
2022/05/07 02:04:46;;;;;;;19.30;13.60;;;;;;;12.09;58.29;100919.77;104292;1293;22569;-74
2022/05/07 02:07:15;;;;;;;16.60;13.60;;;;;;;12.13;58.26;100916.92;103830;1294;25771;-76
2022/05/07 02:09:42;;;;;;;18.10;14.00;;;;;;;12.15;58.13;100912.14;104071;1293;25203;-76
2022/05/07 02:12:09;;;;;;;17.30;13.60;;;;;;;12.19;58.14;100911.43;103967;1294;22554;-76
2022/05/07 02:14:38;;;;;;;21.90;14.30;;;;;;;12.22;58.08;100909.11;103653;1299;22689;-76
2022/05/07 02:17:06;;;;;;;22.00;13.60;;;;;;;12.26;58.10;100910.31;103438;1300;22745;-77
2022/05/07 02:19:32;;;;;;;17.40;13.20;;;;;;;12.24;58.26;100905.20;103496;1299;24398;-76
2022/05/07 02:21:59;;;;;;;16.00;13.10;;;;;;;12.23;58.17;100902.20;103457;1299;22574;-75
2022/05/07 02:24:27;;;;;;;17.30;14.50;;;;;;;12.24;58.12;100908.04;103424;1303;24293;-81
2022/05/07 02:26:53;;;;;;;17.90;14.20;;;;;;;12.25;58.21;100913.15;103579;1300;24847;-74
2022/05/07 02:29:20;;;;;;;15.40;13.50;;;;;;;12.25;58.22;100909.61;103521;1299;25624;-74
2022/05/07 02:32:03;;;;;;;20.70;12.50;;;;;;;12.22;58.24;100911.59;103633;1300;22560;-76
2022/05/07 02:34:35;;;;;;;19.20;12.70;;;;;;;12.20;58.49;100912.66;103855;1297;22576;-77
2022/05/07 02:37:04;;;;;;;23.60;13.50;;;;;;;12.19;58.50;100917.77;104036;1296;26545;-75
2022/05/07 02:39:35;;;;;;;17.80;13.10;;;;;;;12.10;58.42;100915.36;103761;1297;22601;-75
2022/05/07 02:44:49;;;;;;;18.80;13.30;;;;;;;11.94;58.87;100918.27;104458;1290;25261;-78
2022/05/07 02:47:17;;;;;;;17.50;12.90;;;;;;;11.96;58.93;100921.95;104132;1291;22557;-78
2022/05/07 02:49:44;;;;;;;20.30;13.60;;;;;;;11.85;58.87;100923.45;104464;1290;22547;-78
2022/05/07 02:52:12;;;;;;;17.10;13.70;;;;;;;11.74;59.10;100920.33;104365;1290;25218;-79
2022/05/07 02:54:39;;;;;;;20.30;14.20;;;;;;;11.74;59.36;100922.79;103838;1296;22563;-76
2022/05/07 02:57:06;;;;;;;18.00;14.10;;;;;;;11.72;59.51;100925.45;103911;1296;25201;-78
2022/05/07 02:59:33;;;;;;;20.00;13.20;;;;;;;11.74;59.66;100928.43;103990;1296;22751;-76
2022/05/07 03:02:01;;;;;;;22.30;14.00;;;;;;;11.72;59.66;100925.97;104113;1296;25267;-78
2022/05/07 03:04:29;;;;;;;18.10;13.10;;;;;;;11.74;59.82;100931.61;104067;1296;22579;-79
2022/05/07 03:07:17;;;;;;;19.70;13.80;;;;;;;11.72;59.82;100927.03;103818;1296;22792;-76
2022/05/07 03:09:44;;;;;;;17.50;13.80;;;;;;;11.65;59.99;100929.72;103880;1296;22687;-76
2022/05/07 03:12:12;;;;;;;18.90;13.20;;;;;;;11.65;60.10;100929.19;103793;1290;22612;-78
2022/05/07 03:14:41;;;;;;;19.10;13.90;;;;;;;11.59;60.11;100928.17;103868;1297;25448;-76
2022/05/07 03:17:08;;;;;;;17.80;13.60;;;;;;;11.60;60.38;100927.63;103968;1296;23634;-82
2022/05/07 03:19:35;;;;;;;17.00;14.00;;;;;;;11.60;60.42;100927.98;104108;1296;25267;-76
2022/05/07 03:22:02;;;;;;;18.60;13.40;;;;;;;11.63;60.48;100925.67;103818;1296;22649;-81
2022/05/07 03:24:30;;;;;;;17.60;14.40;;;;;;;11.66;60.49;100920.71;104015;1296;22914;-77
2022/05/07 03:27:00;;;;;;;19.30;14.50;;;;;;;11.68;60.49;100921.59;103668;1296;25305;-78
2022/05/07 03:29:27;;;;;;;21.50;15.30;;;;;;;11.70;60.36;100924.39;103802;1296;23002;-79
2022/05/07 03:32:04;;;;;;;19.20;14.00;;;;;;;11.68;60.38;100927.41;103828;1289;25275;-79
2022/05/07 03:34:31;;;;;;;22.80;15.20;;;;;;;11.66;60.51;100927.42;104285;1291;24189;-77
2022/05/07 03:36:58;;;;;;;22.60;15.10;;;;;;;11.67;60.44;100934.30;104358;1290;24126;-78
2022/05/07 03:39:26;;;;;;;20.60;15.20;;;;;;;11.65;60.45;100934.13;104477;1290;23383;-79
2022/05/07 03:41:53;;;;;;;26.60;15.00;;;;;;;11.65;60.44;100943.48;104410;1290;22683;-79
2022/05/07 03:44:20;;;;;;;18.10;14.00;;;;;;;11.62;60.28;100940.85;104384;1291;22734;-78
2022/05/07 03:46:50;;;;;;;18.60;14.70;;;;;;;11.48;60.34;100943.38;104687;1290;22578;-79
2022/05/07 03:49:17;;;;;;;18.80;14.80;;;;;;;11.33;60.61;100945.89;104049;1291;25277;-81
2022/05/07 03:54:31;;;;;;;23.80;16.70;;;;;;;11.22;61.32;100948.92;104633;1290;22576;-81
2022/05/07 03:56:58;;;;;;;21.20;15.90;;;;;;;11.21;61.40;100945.77;104556;1290;22565;-76
2022/05/07 03:59:29;;;;;;;24.90;16.70;;;;;;;11.16;61.45;100953.35;104470;1290;22564;-80
2022/05/07 04:01:57;;;;;;;24.40;17.50;;;;;;;11.14;61.61;100954.24;104601;1290;25451;-79
2022/05/07 04:04:33;;;;;;;26.60;19.30;;;;;;;11.12;61.87;100956.00;104371;1290;22529;-82
2022/05/07 04:07:05;;;;;;;25.30;18.20;;;;;;;11.08;62.10;100958.66;104375;1291;23011;-79
2022/05/07 04:09:32;;;;;;;27.40;18.50;;;;;;;11.09;62.19;100958.66;104208;1290;25662;-80
2022/05/07 04:11:59;;;;;;;27.40;20.50;;;;;;;11.15;62.24;100959.89;104720;1291;26541;-83
2022/05/07 04:14:26;;;;;;;23.80;19.20;;;;;;;11.21;62.39;100956.33;104637;1291;24314;-80
2022/05/07 04:16:55;;;;;;;23.40;17.90;;;;;;;11.24;62.31;100961.79;104566;1290;22737;-79
2022/05/07 04:19:22;;;;;;;22.00;16.10;;;;;;;11.25;62.19;100964.09;104693;1290;24246;-80
2022/05/07 04:21:51;;;;;;;28.60;19.20;;;;;;;11.26;62.26;100958.60;104628;1290;24661;-84
2022/05/07 04:24:24;;;;;;;26.20;19.00;;;;;;;11.33;62.45;100961.41;103983;1297;26522;-82
2022/05/07 04:26:52;;;;;;;23.70;18.10;;;;;;;11.39;62.23;100960.88;103982;1296;25920;-81
2022/05/07 04:29:19;;;;;;;23.50;17.90;;;;;;;11.37;62.06;100963.52;104082;1296;22648;-82
2022/05/07 04:31:54;;;;;;;25.50;18.30;;;;;;;11.37;62.20;100966.70;103720;1302;25368;-81
2022/05/07 04:34:23;;;;;;;24.70;19.20;;;;;;;11.44;62.28;100967.38;103697;1302;22742;-80
2022/05/07 04:36:51;;;;;;;24.70;19.00;;;;;;;11.52;62.22;100972.64;103945;1302;25388;-80
2022/05/07 04:39:18;;;;;;;24.80;19.00;;;;;;;11.56;61.98;100970.69;104016;1302;25278;-79
2022/05/07 04:41:55;;;;;;;26.10;18.50;;;;;;;11.54;61.90;100971.41;103883;1297;26771;-80
2022/05/07 04:44:27;;;;;;;25.40;18.00;;;;;;;11.52;61.93;100974.04;104040;1296;25333;-81
2022/05/07 04:46:55;;;;;;;24.10;18.70;;;;;;;11.56;62.04;100976.52;104716;1296;25245;-81
2022/05/07 04:49:23;;;;;;;22.20;18.20;;;;;;;11.60;61.98;100980.36;105482;1290;25319;-81
2022/05/07 04:51:51;;;;;;;25.30;16.80;;;;;;;11.65;61.88;100979.64;106124;1290;22590;-85
2022/05/07 04:54:21;;;;;;;23.00;17.60;;;;;;;11.67;61.73;100983.34;106391;1290;22644;-84
2022/05/07 04:56:52;;;;;;;22.40;16.60;;;;;;;11.71;61.70;100980.67;106002;1290;22563;-84
2022/05/07 04:59:21;;;;;;;19.60;15.30;;;;;;;11.76;61.85;100984.02;105104;1290;352562;-84
2022/05/07 05:02:03;;;;;;;22.80;16.80;;;;;;;11.83;61.65;100984.33;104325;1290;25432;-79
2022/05/07 05:04:31;;;;;;;20.80;15.10;;;;;;;11.88;61.39;100991.73;104324;1291;25421;-81
2022/05/07 05:07:00;;;;;;;20.50;15.80;;;;;;;11.90;61.26;100992.41;104845;1290;25344;-80
2022/05/07 05:09:33;;;;;;;19.40;16.10;;;;;;;11.96;61.14;100991.70;104648;1290;25263;-80
2022/05/07 05:12:09;;;;;;;21.00;16.20;;;;;;;12.00;61.20;100993.08;104387;1291;22560;-81
2022/05/07 05:17:37;;;;;;;17.80;15.20;;;;;;;12.02;61.03;100992.53;104452;1293;25514;-85
2022/05/07 05:20:09;;;;;;;18.20;14.30;;;;;;;12.05;60.98;100991.80;104590;1291;23957;-79
2022/05/07 05:22:40;;;;;;;19.40;14.60;;;;;;;12.08;60.95;100995.52;104044;1291;25318;-80
2022/05/07 05:25:07;;;;;;;18.50;14.60;;;;;;;12.16;60.97;100993.91;104278;1291;22553;-78
2022/05/07 05:27:34;;;;;;;17.50;14.20;;;;;;;12.23;60.78;100993.50;104407;1293;22557;-88
2022/05/07 05:30:04;;;;;;;21.20;13.90;;;;;;;12.28;60.83;100994.52;104417;1290;22696;-85
2022/05/07 05:32:31;;;;;;;22.00;14.60;;;;;;;12.30;60.79;100997.34;104438;1291;22553;-82
2022/05/07 05:35:00;;;;;;;15.80;13.00;;;;;;;12.37;60.80;101002.60;104200;1290;22606;-81
2022/05/07 05:37:33;;;;;;;17.20;13.10;;;;;;;12.44;60.55;101005.38;104271;1291;24368;-81
2022/05/07 05:40:00;;;;;;;20.30;14.50;;;;;;;12.48;60.43;101004.64;104445;1291;22606;-83
2022/05/07 05:42:32;;;;;;;22.30;14.30;;;;;;;12.54;60.21;101009.36;104592;1291;22585;-82
2022/05/07 05:44:59;;;;;;;17.50;12.90;;;;;;;12.60;60.12;101010.21;104719;1290;22551;-85
2022/05/07 05:47:27;;;;;;;22.20;13.30;;;;;;;12.63;59.76;101009.64;104698;1290;22729;-83
2022/05/07 05:49:53;;;;;;;19.10;13.00;;;;;;;12.66;59.56;101011.23;104318;1291;22588;-82
2022/05/07 05:52:27;;;;;;;21.50;13.00;;;;;;;12.69;59.45;101005.71;104659;1290;25492;-85
2022/05/07 05:54:54;;;;;;;20.90;12.60;;;;;;;12.73;59.14;101012.23;104127;1290;24247;-84
2022/05/07 05:57:22;;;;;;;23.90;11.90;;;;;;;12.73;59.02;101007.81;104611;1290;25264;-85
2022/05/07 05:59:49;;;;;;;21.80;12.80;;;;;;;12.76;59.19;101011.49;104274;1293;24246;-78
2022/05/07 06:02:18;;;;;;;25.00;13.30;;;;;;;12.84;59.21;101012.84;104255;1291;22700;-79
2022/05/07 06:05:00;;;;;;;27.50;11.30;;;;;;;12.95;59.04;101012.39;104146;1293;25388;-77
2022/05/07 06:07:28;;;;;;;25.00;12.30;;;;;;;13.03;58.98;101008.23;104126;1291;22818;-79
2022/05/07 06:09:58;;;;;;;27.50;11.10;;;;;;;13.14;58.86;101010.81;104643;1290;22598;-79
2022/05/07 06:12:34;;;;;;;23.80;11.40;;;;;;;13.23;58.54;101011.78;104497;1290;25261;-79
2022/05/07 06:15:04;;;;;;;23.30;11.20;;;;;;;13.31;58.33;101015.23;104583;1290;22553;-79
2022/05/07 06:17:31;;;;;;;33.90;12.40;;;;;;;13.38;58.14;101014.80;104466;1290;22570;-80
2022/05/07 06:19:58;;;;;;;31.80;11.20;;;;;;;13.48;58.12;101012.05;104363;1293;22558;-78
2022/05/07 06:22:28;;;;;;;24.20;10.00;;;;;;;13.55;57.82;101011.81;104341;1290;22621;-79
2022/05/07 06:27:51;;;;;;;29.50;10.00;;;;;;;13.77;57.47;101015.09;104336;1290;22729;-79
2022/05/07 06:30:23;;;;;;;29.00;8.00;;;;;;;13.86;57.03;101012.33;104360;1291;25499;-77
2022/05/07 06:32:52;;;;;;;9.70;5.90;;;;;;;13.95;56.65;101015.77;104471;1291;22675;-79
2022/05/07 06:35:23;;;;;;;11.70;5.50;;;;;;;14.03;55.65;101013.52;104230;1290;24518;-78
2022/05/07 06:37:57;;;;;;;7.40;4.80;;;;;;;14.08;54.98;101011.69;104156;1291;24382;-79
2022/05/07 06:40:25;;;;;;;10.60;5.10;;;;;;;14.11;54.95;101017.14;104398;1290;25440;-78
2022/05/07 06:42:52;;;;;;;13.20;5.40;;;;;;;14.17;54.81;101014.04;104035;1290;22745;-79
2022/05/07 06:45:26;;;;;;;11.90;5.20;;;;;;;14.23;54.62;101011.66;104423;1290;25270;-79
2022/05/07 06:47:54;;;;;;;7.40;5.70;;;;;;;14.30;54.58;101014.57;104482;1291;22863;-79
2022/05/07 06:50:22;;;;;;;7.90;4.90;;;;;;;14.40;54.56;101017.09;104481;1290;22582;-85
2022/05/07 06:52:49;;;;;;;7.00;4.90;;;;;;;14.47;54.22;101015.91;104424;1290;25497;-84
2022/05/07 06:55:18;;;;;;;15.50;4.60;;;;;;;14.54;54.08;101014.39;104846;1290;22971;-83
2022/05/07 06:57:46;;;;;;;6.40;4.80;;;;;;;14.60;53.89;101012.70;104352;1299;26150;-84
2022/05/07 07:00:33;;;;;;;15.10;4.90;;;;;;;14.69;53.60;101016.81;104106;1299;24262;-84
2022/05/07 07:03:01;;;;;;;14.50;4.50;;;;;;;14.73;53.21;101018.52;104070;1296;23985;-84
2022/05/07 07:05:27;;;;;;;11.20;4.80;;;;;;;14.77;52.99;101017.04;103973;1296;22868;-84
2022/05/07 07:07:54;;;;;;;8.70;4.30;;;;;;;14.85;52.94;101018.71;103928;1296;22943;-83
2022/05/07 07:10:21;;;;;;;11.30;4.50;;;;;;;14.91;52.71;101019.13;103856;1297;24311;-85
2022/05/07 07:12:48;;;;;;;16.40;5.00;;;;;;;14.94;52.52;101014.48;103768;1296;25284;-79
2022/05/07 07:15:15;;;;;;;12.20;5.00;;;;;;;14.99;52.53;101016.00;103794;1297;22557;-82
2022/05/07 07:17:42;;;;;;;7.20;4.20;;;;;;;15.05;52.43;101011.98;103767;1299;22580;-81
2022/05/07 07:20:09;;;;;;;9.50;3.80;;;;;;;15.13;52.28;101008.29;103707;1296;22554;-82
2022/05/07 07:22:39;;;;;;;7.20;4.20;;;;;;;15.23;52.14;101011.30;103875;1293;25273;-84
2022/05/07 07:25:07;;;;;;;6.10;3.60;;;;;;;15.31;51.78;101011.15;104384;1290;23242;-86
2022/05/07 07:27:34;;;;;;;5.90;3.00;;;;;;;15.40;51.54;101014.35;104562;1291;23396;-85
2022/05/07 07:30:01;;;;;;;5.30;3.10;;;;;;;15.49;51.04;101016.85;105019;1290;26614;-82
2022/05/07 07:32:30;;;;;;;11.50;4.20;;;;;;;15.56;50.96;101008.89;104664;1290;26541;-84
2022/05/07 07:34:57;;;;;;;7.60;3.10;;;;;;;15.64;50.72;101010.15;104937;1291;23534;-85
2022/05/07 07:37:25;;;;;;;5.90;3.10;;;;;;;15.72;50.39;101011.78;105168;1290;23930;-78
2022/05/07 07:39:52;;;;;;;6.60;3.30;;;;;;;15.76;49.97;101014.35;104994;1290;22637;-86
2022/05/07 07:42:23;;;;;;;4.80;3.10;;;;;;;15.79;49.43;101010.92;104640;1291;22612;-84
2022/05/07 07:47:56;;;;;;;3.10;2.40;;;;;;;15.84;49.08;101014.20;105529;1290;22513;-84
2022/05/07 07:50:24;;;;;;;6.10;3.30;;;;;;;15.98;48.93;101011.08;104333;1299;22736;-84
2022/05/07 07:52:57;;;;;;;4.60;3.80;;;;;;;16.02;48.75;101015.44;104036;1299;22659;-82
2022/05/07 07:55:24;;;;;;;3.80;2.40;;;;;;;16.11;48.42;101016.48;104239;1296;22560;-82
2022/05/07 07:57:56;;;;;;;3.30;2.20;;;;;;;16.14;48.25;101011.44;104220;1297;22727;-82
2022/05/07 08:00:25;;;;;;;4.10;2.70;;;;;;;16.25;48.20;101006.58;104391;1297;22636;-83
2022/05/07 08:02:58;;;;;;;3.70;2.50;;;;;;;16.36;47.99;101006.50;104305;1296;25448;-82
2022/05/07 08:05:28;;;;;;;4.90;3.00;;;;;;;16.43;47.64;101008.13;104442;1294;26555;-82
2022/05/07 08:13:33;;;;;;;3.10;2.50;;;;;;;16.53;46.68;101009.66;104770;1290;22574;-84
2022/05/07 08:16:01;;;;;;;3.20;2.30;;;;;;;16.55;46.82;101008.02;104632;1290;25089;-84
2022/05/07 08:18:28;;;;;;;2.60;2.20;;;;;;;16.60;46.72;101006.82;104558;1291;25553;-83
2022/05/07 08:20:56;;;;;;;3.40;2.10;;;;;;;16.69;46.47;101008.05;104750;1290;22557;-84
2022/05/07 08:23:25;;;;;;;2.30;1.80;;;;;;;16.73;45.65;101007.79;104690;1291;22512;-83
2022/05/07 08:25:58;;;;;;;5.80;2.00;;;;;;;16.77;45.94;101005.16;105182;1290;22821;-82
2022/05/07 08:28:25;;;;;;;5.70;1.90;;;;;;;16.89;46.01;101002.39;105275;1290;25397;-81
2022/05/07 08:30:53;;;;;;;2.60;2.10;;;;;;;17.02;45.66;101003.11;105097;1290;22625;-83
2022/05/07 08:33:21;;;;;;;2.90;1.70;;;;;;;17.16;45.74;100999.94;104941;1290;22612;-81
2022/05/07 08:40:04;;;;;;;3.90;2.00;;;;;;;17.51;44.69;101004.30;106076;1290;26586;-84
2022/05/07 08:52:02;;;;;;;1.50;1.30;;;;;;;17.68;44.49;100998.69;105780;1290;22895;-81
2022/05/07 08:58:49;;;;;;;3.30;1.50;;;;;;;17.77;44.00;100996.27;105770;1290;24820;-81
2022/05/07 09:01:16;;;;;;;1.60;1.40;;;;;;;17.93;43.53;100989.58;104325;1291;22548;-80
2022/05/07 09:03:46;;;;;;;2.30;1.80;;;;;;;17.93;43.69;100989.73;104415;1291;22778;-87
2022/05/07 09:06:18;;;;;;;1.20;1.10;;;;;;;17.88;43.54;100997.20;104917;1290;25554;-84
2022/05/07 09:08:47;;;;;;;3.00;1.20;;;;;;;17.78;43.31;100993.59;104094;1297;22593;-84
2022/05/07 09:11:16;;;;;;;6.00;1.80;;;;;;;17.85;43.06;100989.45;104240;1296;25383;-84
2022/05/07 09:13:45;;;;;;;2.50;1.00;;;;;;;17.92;42.78;100996.36;104081;1297;22623;-83
2022/05/07 09:16:14;;;;;;;1.70;1.00;;;;;;;17.87;42.12;101002.95;104110;1299;25376;-85
2022/05/07 09:18:50;;;;;;;2.80;0.70;;;;;;;17.90;41.75;100993.57;104162;1296;24317;-83
2022/05/07 09:21:23;;;;;;;1.10;1.00;;;;;;;18.07;41.84;100992.19;104103;1297;25319;-85
2022/05/07 09:24:05;;;;;;;1.00;0.80;;;;;;;18.21;41.43;100993.21;103885;1295;22554;-84
2022/05/07 09:26:36;;;;;;;4.40;1.00;;;;;;;18.38;41.55;100992.33;104050;1297;22579;-84
2022/05/07 09:29:08;;;;;;;2.20;1.00;;;;;;;18.55;41.39;100987.29;104118;1296;22630;-84
2022/05/07 09:31:36;;;;;;;2.20;0.90;;;;;;;18.77;41.38;100991.58;103959;1296;26631;-85
2022/05/07 09:37:17;;;;;;;1.10;0.80;;;;;;;18.92;39.72;100991.80;104733;1290;24159;-83
2022/05/07 09:39:49;;;;;;;1.10;1.00;;;;;;;18.95;39.48;100990.77;104703;1290;24949;-84
2022/05/07 09:42:19;;;;;;;0.90;0.80;;;;;;;19.09;39.45;100989.81;104446;1290;23181;-85
2022/05/07 09:44:48;;;;;;;1.40;1.10;;;;;;;19.25;39.67;100987.27;104547;1290;26138;-84
2022/05/07 09:47:16;;;;;;;2.80;0.90;;;;;;;19.50;39.45;100983.86;104628;1291;24173;-86
2022/05/07 09:52:32;;;;;;;1.90;0.90;;;;;;;20.03;39.25;100980.99;104431;1290;22636;-83
2022/05/07 09:57:46;;;;;;;1.30;0.90;;;;;;;20.38;37.91;100972.63;104375;1290;22590;-81
2022/05/07 10:00:19;;;;;;;5.90;1.10;;;;;;;20.34;37.58;100967.45;103856;1296;25271;-80
2022/05/07 10:02:45;;;;;;;3.40;1.00;;;;;;;20.30;37.32;100964.42;103749;1297;22600;-85
2022/05/07 10:05:24;;;;;;;2.00;1.00;;;;;;;20.26;37.18;100955.07;103971;1296;23089;-85
2022/05/07 10:08:05;;;;;;;3.10;1.50;;;;;;;20.41;37.57;100962.50;103700;1299;22572;-86
2022/05/07 10:10:36;;;;;;;1.00;0.90;;;;;;;20.48;37.67;100953.81;103918;1296;22577;-85
2022/05/07 10:13:07;;;;;;;1.60;1.10;;;;;;;20.43;37.24;100957.80;103692;1296;24354;-86
2022/05/07 10:15:34;;;;;;;1.40;1.00;;;;;;;20.50;36.86;100959.27;103755;1299;22580;-81
2022/05/07 10:18:07;;;;;;;1.90;0.90;;;;;;;20.51;37.11;100950.81;103757;1291;22601;-81
2022/05/07 10:20:38;;;;;;;0.90;0.90;;;;;;;20.62;36.81;100945.54;104365;1290;22579;-87
2022/05/07 10:23:09;;;;;;;4.90;0.90;;;;;;;20.80;36.70;100942.61;105249;1290;22648;-84
2022/05/07 10:25:37;;;;;;;3.30;1.00;;;;;;;20.98;36.43;100945.99;105103;1291;22708;-84
2022/05/07 10:28:10;;;;;;;2.90;1.40;;;;;;;21.17;36.25;100942.46;104487;1293;22499;-86
2022/05/07 10:30:52;;;;;;;3.00;1.30;;;;;;;21.17;35.93;100939.42;104736;1291;22646;-88
2022/05/07 10:33:21;;;;;;;1.40;1.00;;;;;;;21.41;35.58;100934.98;104226;1290;24335;-85
2022/05/07 10:35:54;;;;;;;2.20;1.20;;;;;;;21.51;35.72;100939.52;104281;1290;24294;-86
2022/05/07 10:38:27;;;;;;;1.60;1.00;;;;;;;21.83;35.69;100945.77;104770;1290;22554;-88
2022/05/07 10:40:55;;;;;;;2.80;1.00;;;;;;;22.08;35.14;100943.17;104676;1290;25388;-86
2022/05/07 10:43:37;;;;;;;0.90;0.90;;;;;;;22.06;34.32;100947.20;105800;1290;22591;-83
2022/05/07 10:46:04;;;;;;;0.90;0.80;;;;;;;21.79;34.11;100948.48;105030;1290;25333;-85
2022/05/07 10:49:04;;;;;;;2.70;1.00;;;;;;;21.82;34.70;100946.58;105557;1290;25417;-84
2022/05/07 10:51:35;;;;;;;2.20;1.10;;;;;;;21.92;34.48;100943.58;104846;1300;26861;-84
2022/05/07 10:54:21;;;;;;;0.80;0.80;;;;;;;22.09;34.69;100943.45;104313;1300;23390;-85
2022/05/07 10:56:53;;;;;;;1.50;1.10;;;;;;;22.32;33.87;100945.40;103678;1300;22561;-85
2022/05/07 10:59:21;;;;;;;1.00;0.90;;;;;;;22.44;34.07;100945.35;103577;1300;22632;-83
2022/05/07 11:01:49;;;;;;;3.70;1.80;;;;;;;22.64;34.16;100943.32;103761;1300;22612;-82
2022/05/07 11:04:19;;;;;;;5.60;2.00;;;;;;;22.85;34.30;100933.27;104126;1300;22748;-87
2022/05/07 11:06:52;;;;;;;3.20;1.70;;;;;;;23.00;34.07;100936.80;103815;1302;25802;-88
2022/05/07 11:09:27;;;;;;;4.80;1.60;;;;;;;23.12;34.48;100938.66;103778;1297;25277;-91
2022/05/07 11:11:57;;;;;;;1.40;1.30;;;;;;;23.35;34.19;100933.86;104805;1296;24313;-94
2022/05/07 11:14:35;;;;;;;2.40;1.00;;;;;;;23.54;34.25;100933.58;104820;1296;23311;-90
2022/05/07 11:17:04;;;;;;;1.30;1.20;;;;;;;23.71;34.03;100931.92;104669;1294;23175;-89
2022/05/07 11:19:33;;;;;;;1.80;1.50;;;;;;;23.81;33.26;100933.89;104548;1297;24322;-84
2022/05/07 11:25:35;;;;;;;4.10;1.60;;;;;;;23.48;33.39;100925.48;103976;1297;26680;-82
2022/05/07 11:28:03;;;;;;;2.80;1.50;;;;;;;23.47;33.39;100930.91;104270;1296;22613;-84
2022/05/07 11:30:31;;;;;;;3.90;1.90;;;;;;;23.68;33.62;100925.80;104519;1290;25419;-84
2022/05/07 11:33:05;;;;;;;3.60;1.80;;;;;;;23.94;33.49;100927.04;104497;1291;24268;-82
2022/05/07 11:35:33;;;;;;;1.90;1.60;;;;;;;24.13;33.21;100927.45;104681;1290;24255;-81
2022/05/07 11:42:07;;;;;;;5.70;1.20;;;;;;;23.71;32.83;100915.59;105064;1290;22878;-84
2022/05/07 11:47:22;;;;;;;;;;;;;;;24.13;33.62;100907.27;105108;1291;24225;-88
2022/05/07 11:50:07;;;;;;;6.10;1.30;;;;;;;24.38;33.08;100909.84;105455;1296;25404;-91
2022/05/07 11:52:36;;;;;;;4.00;1.70;;;;;;;24.32;32.44;100908.91;104914;1296;25347;-87
2022/05/07 11:55:11;;;;;;;7.50;2.30;;;;;;;24.24;32.35;100914.95;105131;1296;22730;-92
2022/05/07 11:58:29;;;;;;;3.50;1.80;;;;;;;24.38;32.18;100909.80;104810;1296;22631;-88
2022/05/07 12:00:58;;;;;;;2.00;1.30;;;;;;;24.40;31.76;100908.27;104762;1296;26538;-88
2022/05/07 12:03:26;;;;;;;4.50;1.30;;;;;;;24.45;31.94;100906.14;104941;1296;22590;-90
2022/05/07 12:05:56;;;;;;;2.70;1.20;;;;;;;24.45;31.39;100898.04;105161;1296;25347;-87
2022/05/07 12:08:33;;;;;;;4.20;1.30;;;;;;;24.56;31.99;100897.23;106597;1296;22601;-95
2022/05/07 12:11:04;;;;;;;1.40;1.30;;;;;;;24.86;32.08;100898.89;106016;1296;23341;-85
2022/05/07 12:13:31;;;;;;;4.60;1.20;;;;;;;24.88;31.87;100895.34;105145;1296;22616;-84
2022/05/07 12:18:48;;;;;;;1.70;1.30;;;;;;;24.40;31.74;100902.30;104602;1296;23740;-84
2022/05/07 12:21:17;;;;;;;2.40;1.20;;;;;;;24.21;31.57;100902.86;104700;1298;25924;-85
2022/05/07 12:32:01;;;;;;;1.50;0.80;;;;;;;24.61;31.36;100898.56;105976;1290;22708;-89
2022/05/07 12:34:31;;;;;;;2.40;1.10;;;;;;;24.57;30.80;100894.08;105522;1290;22699;-86